Time;durP1;ratioP1;P1;durP2;ratioP2;P2;SDS_P1;SDS_P2;PMS_P1;PMS_P2;Temp;Humidity;BMP_temperature;BMP_pressure;BME280_temperature;BME280_humidity;BME280_pressure;Samples;Min_cycle;Max_cycle;Signal;HPM_P1;HPM_P2
2021/07/25 00:00:50;;;;;;;16.75;15.15;;;27.50;54.40;;;;;;4738253;59;21464;-26
2021/07/25 00:05:51;;;;;;;15.48;14.02;;;27.40;55.00;;;;;;4775527;55;21074;-24
2021/07/25 00:10:52;;;;;;;16.92;15.32;;;27.40;54.40;;;;;;4748444;55;20997;-23
2021/07/25 00:15:53;;;;;;;16.62;15.10;;;27.40;54.30;;;;;;4737982;55;21026;-21
2021/07/25 00:20:53;;;;;;;16.40;14.90;;;27.50;54.40;;;;;;4738092;59;21449;-25
2021/07/25 00:25:57;;;;;;;16.98;15.38;;;27.40;54.40;;;;;;4749881;55;21066;-26
2021/07/25 00:31:03;;;;;;;16.87;15.27;;;27.40;54.40;;;;;;4764578;55;21100;-27
2021/07/25 00:36:06;;;;;;;17.00;15.30;;;27.40;54.50;;;;;;4738642;55;21487;-26
2021/07/25 00:41:16;;;;;;;15.95;14.40;;;27.40;54.60;;;;;;4750184;55;21964;-23
2021/07/25 00:46:17;;;;;;;16.15;14.57;;;27.40;54.40;;;;;;4740520;55;22224;-23
2021/07/25 00:51:18;;;;;;;17.10;15.50;;;27.40;54.50;;;;;;4802042;55;21025;-27
2021/07/25 00:56:19;;;;;;;15.48;14.07;;;27.40;54.50;;;;;;4772138;55;21472;-29
2021/07/25 01:01:23;;;;;;;16.87;15.38;;;27.40;54.50;;;;;;4764575;55;20998;-25
2021/07/25 01:07:24;;;;;;;17.00;15.50;;;27.40;54.60;;;;;;4792147;55;21135;-28
2021/07/25 01:12:33;;;;;;;17.20;15.60;;;27.40;54.50;;;;;;4778120;55;21002;-28
2021/07/25 01:17:35;;;;;;;16.75;15.25;;;27.40;54.60;;;;;;4751940;55;20978;-22
2021/07/25 01:22:41;;;;;;;17.40;15.70;;;27.40;54.70;;;;;;4766674;55;21053;-26
2021/07/25 01:27:48;;;;;;;;;;;27.40;54.80;;;;;;4806040;55;21010;-25
2021/07/25 01:32:50;;;;;;;;;;;27.40;54.70;;;;;;4752224;55;20053;-24
2021/07/25 01:37:52;;;;;;;16.20;14.80;;;27.40;54.50;;;;;;4740483;55;20064;-25
2021/07/25 01:42:54;;;;;;;16.83;15.23;;;27.40;54.90;;;;;;4738650;59;21077;-25
2021/07/25 01:47:55;;;;;;;15.65;14.23;;;27.40;54.80;;;;;;4751705;55;22083;-25
2021/07/25 01:52:56;;;;;;;16.67;15.18;;;27.40;54.80;;;;;;4744081;55;21025;-23
2021/07/25 01:57:57;;;;;;;15.45;14.07;;;27.40;54.80;;;;;;4738420;59;21010;-25
2021/07/25 02:02:57;;;;;;;16.98;15.35;;;27.40;54.80;;;;;;4778469;55;21002;-26
2021/07/25 02:07:58;;;;;;;15.95;14.50;;;27.40;54.80;;;;;;4745827;55;21513;-26
2021/07/25 02:12:59;;;;;;;16.37;14.87;;;27.40;54.80;;;;;;4739090;59;21607;-26
2021/07/25 02:18:00;;;;;;;15.95;14.48;;;27.40;54.70;;;;;;4754952;55;21030;-26
2021/07/25 02:23:00;;;;;;;16.00;14.50;;;27.40;54.80;;;;;;4765144;55;21053;-23
2021/07/25 02:28:01;;;;;;;16.25;14.82;;;27.40;54.80;;;;;;4737655;59;21559;-24
2021/07/25 02:33:03;;;;;;;16.75;15.15;;;27.40;55.00;;;;;;4741787;55;21009;-28
2021/07/25 02:38:04;;;;;;;15.95;14.55;;;27.40;54.90;;;;;;4738603;59;20993;-31
2021/07/25 02:43:05;;;;;;;16.50;14.98;;;27.40;55.00;;;;;;4741185;55;21006;-25
2021/07/25 02:48:06;;;;;;;15.77;14.27;;;27.40;55.00;;;;;;4754586;55;21022;-28
2021/07/25 02:53:07;;;;;;;14.73;13.32;;;27.40;55.00;;;;;;4751490;55;21617;-25
2021/07/25 02:58:07;;;;;;;15.60;14.20;;;27.40;54.80;;;;;;4789072;55;21516;-28
2021/07/25 03:03:08;;;;;;;15.57;14.15;;;27.40;55.00;;;;;;4778546;55;21501;-31
2021/07/25 03:08:09;;;;;;;15.65;14.25;;;27.40;54.80;;;;;;4742423;55;21061;-25
2021/07/25 03:13:10;;;;;;;15.93;14.52;;;27.40;55.10;;;;;;4764792;55;21054;-30
2021/07/25 03:18:11;;;;;;;17.02;15.52;;;27.40;55.20;;;;;;4795289;55;21009;-25
2021/07/25 03:23:12;;;;;;;17.17;15.60;;;27.40;54.90;;;;;;4744108;55;21002;-25
2021/07/25 03:28:13;;;;;;;16.37;14.87;;;27.40;55.00;;;;;;4740391;55;21009;-25
2021/07/25 03:33:14;;;;;;;16.17;14.68;;;27.40;55.00;;;;;;4738335;59;20998;-26
2021/07/25 03:38:16;;;;;;;15.90;14.45;;;27.40;55.00;;;;;;4745286;55;21014;-26
2021/07/25 03:43:18;;;;;;;16.58;15.02;;;27.40;55.60;;;;;;4742910;55;21093;-26
2021/07/25 03:48:19;;;;;;;16.20;14.60;;;27.40;55.00;;;;;;4750776;55;21010;-27
2021/07/25 03:53:20;;;;;;;15.93;14.52;;;27.40;54.90;;;;;;4740588;55;21101;-25
2021/07/25 03:58:21;;;;;;;16.27;14.85;;;27.40;54.90;;;;;;4753491;55;21391;-28
2021/07/25 04:03:22;;;;;;;16.60;15.10;;;27.40;55.00;;;;;;4754591;55;21118;-25
2021/07/25 04:08:23;;;;;;;15.80;14.50;;;27.40;55.00;;;;;;4794788;55;21006;-25
2021/07/25 04:13:23;;;;;;;15.98;14.57;;;27.40;55.00;;;;;;4776545;55;21749;-24
2021/07/25 04:18:24;;;;;;;16.27;14.77;;;27.40;54.90;;;;;;4770209;55;21065;-26
2021/07/25 04:23:25;;;;;;;16.30;14.90;;;27.40;54.90;;;;;;4745762;55;21005;-28
2021/07/25 04:28:26;;;;;;;15.88;14.35;;;27.40;55.00;;;;;;4739226;55;21567;-25
2021/07/25 04:33:31;;;;;;;16.10;14.65;;;27.40;55.00;;;;;;4740797;55;21552;-25
2021/07/25 04:38:35;;;;;;;15.98;14.48;;;27.40;54.90;;;;;;4768747;55;21006;-28
2021/07/25 04:43:38;;;;;;;16.10;14.70;;;27.40;54.90;;;;;;4803900;55;21483;-24
2021/07/25 04:49:25;;;;;;;15.52;14.13;;;27.40;54.90;;;;;;4760346;55;21058;-21
2021/07/25 04:54:34;;;;;;;15.90;14.48;;;27.40;54.80;;;;;;4738414;59;21010;-23
2021/07/25 04:59:47;;;;;;;15.90;14.50;;;27.40;54.80;;;;;;4737790;55;21082;-27
2021/07/25 05:04:49;;;;;;;15.70;14.40;;;27.40;54.90;;;;;;4742394;55;21576;-28
2021/07/25 05:09:50;;;;;;;15.40;14.05;;;27.40;54.90;;;;;;4777896;55;21493;-28
2021/07/25 05:15:43;;;;;;;15.00;13.70;;;27.40;54.80;;;;;;4737787;59;21069;-23
2021/07/25 05:21:32;;;;;;;15.75;14.35;;;27.40;54.80;;;;;;4746525;55;21070;-24
2021/07/25 05:26:36;;;;;;;15.95;14.55;;;27.40;54.90;;;;;;4743079;55;21133;-26
2021/07/25 05:31:37;;;;;;;16.33;14.93;;;27.40;54.80;;;;;;4765760;55;21117;-27
2021/07/25 05:36:41;;;;;;;15.85;14.45;;;27.40;54.90;;;;;;4738651;59;20986;-27
2021/07/25 05:41:43;;;;;;;17.05;15.45;;;27.40;54.80;;;;;;4739075;55;21022;-23
2021/07/25 05:46:44;;;;;;;16.45;14.98;;;27.40;54.90;;;;;;4750647;55;21192;-24
2021/07/25 05:51:44;;;;;;;16.55;15.15;;;27.40;54.90;;;;;;4770677;55;21145;-22
2021/07/25 05:56:45;;;;;;;16.20;14.80;;;27.30;54.70;;;;;;4747129;55;20997;-21
2021/07/25 06:01:48;;;;;;;16.45;14.95;;;27.40;54.90;;;;;;4737997;59;21615;-24
2021/07/25 06:06:48;;;;;;;16.23;14.73;;;27.40;54.80;;;;;;4738813;55;21481;-25
2021/07/25 06:11:50;;;;;;;16.15;14.77;;;27.40;54.90;;;;;;4781744;55;21007;-23
2021/07/25 06:16:50;;;;;;;15.23;13.93;;;27.40;54.90;;;;;;4759024;55;21002;-24
2021/07/25 06:21:51;;;;;;;15.85;14.45;;;27.40;54.90;;;;;;4799399;55;21006;-23
2021/07/25 06:26:52;;;;;;;17.15;15.43;;;27.40;55.00;;;;;;4757408;55;21057;-30
2021/07/25 06:31:53;;;;;;;16.67;15.07;;;27.30;54.80;;;;;;4780838;55;21029;-28
2021/07/25 06:36:54;;;;;;;16.85;15.25;;;27.30;54.90;;;;;;4743085;55;21034;-27
2021/07/25 06:41:55;;;;;;;15.93;14.43;;;27.30;54.70;;;;;;4765181;55;21057;-23
2021/07/25 06:46:55;;;;;;;16.95;15.38;;;27.40;54.90;;;;;;4756653;55;21010;-24
2021/07/25 06:51:56;;;;;;;16.62;15.13;;;27.30;54.70;;;;;;4758624;55;21072;-26
2021/07/25 06:56:57;;;;;;;16.35;14.95;;;27.30;54.70;;;;;;4740398;55;21450;-25
2021/07/25 07:02:00;;;;;;;17.05;15.45;;;27.30;54.70;;;;;;4795296;55;21042;-26
2021/07/25 07:07:01;;;;;;;16.33;14.82;;;27.40;54.80;;;;;;4764508;55;21488;-28
2021/07/25 07:12:02;;;;;;;16.52;15.05;;;27.30;54.60;;;;;;4764866;55;21037;-29
2021/07/25 07:17:03;;;;;;;16.73;15.18;;;27.30;54.70;;;;;;4738089;59;20991;-24
2021/07/25 07:22:04;;;;;;;16.67;15.07;;;27.30;54.70;;;;;;4756777;55;21488;-28
2021/07/25 07:27:04;;;;;;;17.02;15.43;;;27.40;54.70;;;;;;4759269;55;21084;-26
2021/07/25 07:32:06;;;;;;;16.75;15.23;;;27.30;54.70;;;;;;4769641;55;21005;-21
2021/07/25 07:37:09;;;;;;;16.77;15.27;;;27.30;54.60;;;;;;4786405;55;20986;-26
2021/07/25 07:42:10;;;;;;;17.00;15.50;;;27.30;54.60;;;;;;4738681;59;21231;-24
2021/07/25 07:47:11;;;;;;;17.30;15.70;;;27.30;54.50;;;;;;4801516;55;21528;-30
2021/07/25 07:52:12;;;;;;;16.80;15.30;;;27.30;54.60;;;;;;4768055;55;21101;-22
2021/07/25 07:57:13;;;;;;;16.87;15.38;;;27.40;54.60;;;;;;4754108;55;21078;-30
2021/07/25 08:02:16;;;;;;;17.35;15.85;;;27.40;54.70;;;;;;4772299;55;21054;-25
2021/07/25 08:07:18;;;;;;;17.83;16.12;;;27.40;54.70;;;;;;4765520;55;21037;-28
2021/07/25 08:12:19;;;;;;;17.37;15.80;;;27.40;54.70;;;;;;4750768;55;21061;-24
2021/07/25 08:17:20;;;;;;;16.17;14.68;;;27.40;54.60;;;;;;4738468;59;21093;-27
2021/07/25 08:22:21;;;;;;;16.90;15.40;;;27.40;54.60;;;;;;4740274;55;21468;-30
2021/07/25 08:27:22;;;;;;;17.23;15.63;;;27.40;54.60;;;;;;4740631;55;21508;-27
2021/07/25 08:32:22;;;;;;;17.30;15.60;;;27.40;54.70;;;;;;4738309;59;21058;-29
2021/07/25 08:37:24;;;;;;;17.83;16.17;;;27.40;54.60;;;;;;4738241;57;21496;-30
2021/07/25 08:42:25;;;;;;;17.02;15.63;;;27.40;54.60;;;;;;4778494;55;21065;-26
2021/07/25 08:47:40;;;;;;;16.73;15.25;;;27.40;54.60;;;;;;4747647;55;21026;-29
2021/07/25 08:52:46;;;;;;;17.40;15.90;;;27.40;54.70;;;;;;4737732;59;21992;-22
2021/07/25 08:57:50;;;;;;;17.23;15.73;;;27.40;54.60;;;;;;4741824;55;21005;-28
2021/07/25 09:02:51;;;;;;;17.08;15.48;;;27.40;54.60;;;;;;4738794;55;21002;-29
2021/07/25 09:07:53;;;;;;;17.05;15.55;;;27.40;54.60;;;;;;4737443;59;21022;-29
2021/07/25 09:12:55;;;;;;;17.42;15.88;;;27.40;54.60;;;;;;4747337;55;21022;-31
2021/07/25 09:18:01;;;;;;;16.42;15.02;;;27.40;54.70;;;;;;4744728;55;21541;-28
2021/07/25 09:23:11;;;;;;;16.65;15.23;;;27.40;54.70;;;;;;4741916;55;21002;-24
2021/07/25 09:28:16;;;;;;;17.27;15.77;;;27.40;54.70;;;;;;4738062;59;21464;-23
2021/07/25 09:33:29;;;;;;;16.42;14.95;;;27.40;54.70;;;;;;4756304;55;21582;-23
2021/07/25 09:38:30;;;;;;;16.52;15.13;;;27.40;54.70;;;;;;4754980;55;21066;-22
2021/07/25 09:43:33;;;;;;;16.65;15.15;;;27.40;54.60;;;;;;4771063;55;20994;-26
2021/07/25 09:48:35;;;;;;;16.10;14.70;;;27.40;54.60;;;;;;4779889;55;21066;-23
2021/07/25 09:53:46;;;;;;;16.12;14.68;;;27.40;54.60;;;;;;4764125;55;21030;-25
2021/07/25 09:58:47;;;;;;;16.62;15.13;;;27.40;54.60;;;;;;4738546;59;20998;-27
2021/07/25 10:03:48;;;;;;;16.30;14.90;;;27.40;54.60;;;;;;4804979;55;21006;-25
2021/07/25 10:09:08;;;;;;;15.73;14.38;;;27.40;55.20;;;;;;4759024;55;21009;-25
2021/07/25 10:14:09;;;;;;;16.98;15.48;;;27.40;54.60;;;;;;4797162;55;21539;-25
2021/07/25 10:19:11;;;;;;;16.05;14.65;;;27.40;54.60;;;;;;4770614;55;21177;-30
2021/07/25 10:24:13;;;;;;;16.65;15.15;;;27.40;54.60;;;;;;4742611;55;21025;-28
2021/07/25 10:29:14;;;;;;;17.02;15.52;;;27.40;54.60;;;;;;4792997;55;21516;-24
2021/07/25 10:34:16;;;;;;;16.33;14.93;;;27.40;54.50;;;;;;4767057;55;21230;-25
2021/07/25 10:39:17;;;;;;;16.50;15.07;;;27.40;54.50;;;;;;4766718;55;21050;-27
2021/07/25 10:44:19;;;;;;;16.67;15.18;;;27.40;54.50;;;;;;4769733;55;21018;-33
2021/07/25 10:49:20;;;;;;;16.95;15.43;;;27.40;54.50;;;;;;4765663;55;21497;-27
2021/07/25 10:54:46;;;;;;;16.12;14.73;;;27.40;54.50;;;;;;4767419;55;21006;-23
2021/07/25 10:59:48;;;;;;;;;;;27.40;54.50;;;;;;4741699;59;20994;-28
2021/07/25 11:05:11;;;;;;;16.30;14.90;;;27.40;54.40;;;;;;4750231;55;20292;-29
2021/07/25 11:10:28;;;;;;;16.52;14.93;;;27.40;54.40;;;;;;4737949;59;21098;-21
2021/07/25 11:15:32;;;;;;;16.73;15.20;;;27.40;54.50;;;;;;4773337;55;21077;-23
2021/07/25 11:21:16;;;;;;;16.12;14.73;;;27.40;54.40;;;;;;4749018;55;21539;-25
2021/07/25 11:26:38;;;;;;;17.52;15.93;;;27.50;54.50;;;;;;4745402;55;21022;-27
2021/07/25 11:31:41;;;;;;;15.70;14.25;;;27.50;54.50;;;;;;4756096;55;21452;-27
2021/07/25 11:36:43;;;;;;;16.20;14.70;;;27.50;54.40;;;;;;4741312;55;21054;-24
2021/07/25 11:41:47;;;;;;;17.45;15.85;;;27.50;54.40;;;;;;4755026;55;21021;-24
2021/07/25 11:46:48;;;;;;;16.62;15.23;;;27.50;54.40;;;;;;4773570;55;21588;-26
2021/07/25 11:52:03;;;;;;;15.52;14.13;;;27.50;54.40;;;;;;4772933;55;21819;-28
2021/07/25 11:57:15;;;;;;;16.30;14.90;;;27.50;54.40;;;;;;4743659;55;21005;-22
2021/07/25 12:02:36;;;;;;;16.08;14.68;;;27.50;54.30;;;;;;4738519;59;20993;-23
2021/07/25 12:07:38;;;;;;;16.55;15.07;;;27.50;54.30;;;;;;4756658;55;21520;-26
2021/07/25 12:12:40;;;;;;;16.52;15.02;;;27.50;54.40;;;;;;4752877;55;21501;-28
2021/07/25 12:17:51;;;;;;;16.73;15.13;;;27.50;54.30;;;;;;4759502;55;21006;-25
2021/07/25 12:23:04;;;;;;;16.30;14.82;;;27.50;54.30;;;;;;4747470;55;21525;-25
2021/07/25 12:28:17;;;;;;;16.90;15.30;;;27.50;54.20;;;;;;4743918;55;21070;-23
2021/07/25 12:34:02;;;;;;;16.87;15.38;;;27.50;54.20;;;;;;4742575;55;21472;-24
2021/07/25 12:39:17;;;;;;;15.73;14.32;;;27.50;54.20;;;;;;4799529;55;21445;-27
2021/07/25 12:44:26;;;;;;;15.70;14.30;;;27.50;54.10;;;;;;4760695;55;21022;-27
2021/07/25 12:49:27;;;;;;;15.90;14.30;;;27.50;54.10;;;;;;4750704;55;21038;-27
2021/07/25 12:54:28;;;;;;;16.55;15.13;;;27.50;54.10;;;;;;4771715;55;21013;-26
2021/07/25 12:59:29;;;;;;;16.33;14.82;;;27.50;54.10;;;;;;4765596;55;21018;-23
2021/07/25 13:04:33;;;;;;;15.82;14.43;;;27.50;54.00;;;;;;4746125;55;21575;-29
2021/07/25 13:09:34;;;;;;;15.07;13.70;;;27.50;54.10;;;;;;4737888;59;21568;-27
2021/07/25 13:14:34;;;;;;;15.85;14.45;;;27.60;54.10;;;;;;4737727;59;20998;-28
2021/07/25 13:19:37;;;;;;;16.00;14.50;;;27.60;54.10;;;;;;4750737;55;21006;-23
2021/07/25 13:24:38;;;;;;;16.08;14.57;;;27.60;54.00;;;;;;4775040;55;21488;-25
2021/07/25 13:29:39;;;;;;;14.48;13.13;;;27.60;54.10;;;;;;4765789;55;21369;-22
2021/07/25 13:34:40;;;;;;;15.70;14.30;;;27.60;54.00;;;;;;4751141;55;20970;-27
2021/07/25 13:39:41;;;;;;;15.77;14.38;;;27.60;54.00;;;;;;4768621;55;21476;-27
2021/07/25 13:44:42;;;;;;;15.30;13.93;;;27.60;54.00;;;;;;4768346;55;21077;-25
2021/07/25 13:49:43;;;;;;;14.90;13.57;;;27.60;54.10;;;;;;4741790;55;21070;-26
2021/07/25 13:54:43;;;;;;;14.55;13.30;;;27.60;54.00;;;;;;4761804;55;21034;-29
2021/07/25 13:59:44;;;;;;;14.68;13.32;;;27.60;54.10;;;;;;4740115;55;21022;-29
2021/07/25 14:04:45;;;;;;;16.10;14.60;;;27.60;54.30;;;;;;4808497;55;20994;-25
2021/07/25 14:09:46;;;;;;;14.60;13.30;;;27.60;54.00;;;;;;4748923;55;21014;-27
2021/07/25 14:14:47;;;;;;;15.48;14.07;;;27.60;54.00;;;;;;4741505;55;20994;-27
2021/07/25 14:19:51;;;;;;;15.23;13.82;;;27.60;54.00;;;;;;4758669;55;21001;-26
2021/07/25 14:25:01;;;;;;;14.32;13.02;;;27.60;54.00;;;;;;4739345;59;21002;-24
2021/07/25 14:30:06;;;;;;;14.75;13.35;;;27.60;54.00;;;;;;4745532;55;21466;-24
2021/07/25 14:35:09;;;;;;;14.57;13.27;;;27.60;54.60;;;;;;4757818;55;21093;-26
2021/07/25 14:40:11;;;;;;;14.00;12.80;;;27.60;54.00;;;;;;4745701;55;21073;-26
2021/07/25 14:45:12;;;;;;;14.87;13.57;;;27.60;54.00;;;;;;4765242;55;20994;-27
2021/07/25 14:50:13;;;;;;;14.63;13.32;;;27.60;54.00;;;;;;4752257;55;21108;-26
2021/07/25 14:55:15;;;;;;;14.65;13.35;;;27.60;54.00;;;;;;4740879;55;21010;-25
2021/07/25 15:00:20;;;;;;;15.23;13.82;;;27.60;54.00;;;;;;4765714;55;20994;-28
2021/07/25 15:05:21;;;;;;;13.88;12.57;;;27.70;54.10;;;;;;4738025;59;21008;-25
2021/07/25 15:10:22;;;;;;;14.48;13.18;;;27.60;54.00;;;;;;4738162;59;21077;-28
2021/07/25 15:15:23;;;;;;;13.52;12.32;;;27.70;54.10;;;;;;4751673;55;21006;-28
2021/07/25 15:20:24;;;;;;;13.77;12.50;;;27.70;53.90;;;;;;4738230;59;21014;-28
2021/07/25 15:25:25;;;;;;;14.25;12.95;;;27.60;54.00;;;;;;4780222;55;21088;-24
2021/07/25 15:30:26;;;;;;;14.60;13.30;;;27.70;54.10;;;;;;4782878;55;21084;-24
2021/07/25 15:35:27;;;;;;;14.27;12.88;;;27.70;54.10;;;;;;4745615;55;21002;-25
2021/07/25 15:40:28;;;;;;;14.45;13.25;;;27.70;54.10;;;;;;4738627;55;21505;-25
2021/07/25 15:45:29;;;;;;;13.13;11.98;;;27.70;54.10;;;;;;4739006;55;21106;-22
2021/07/25 15:50:30;;;;;;;14.70;13.40;;;27.70;54.10;;;;;;4743410;55;21045;-23
2021/07/25 15:55:35;;;;;;;13.40;12.20;;;27.70;54.20;;;;;;4740075;55;22196;-23
2021/07/25 16:00:36;;;;;;;13.82;12.52;;;27.70;54.20;;;;;;4757981;55;21596;-29
2021/07/25 16:05:38;;;;;;;14.45;13.15;;;27.70;54.30;;;;;;4765661;55;21078;-26
2021/07/25 16:10:39;;;;;;;15.05;13.55;;;27.70;54.20;;;;;;4753900;55;21583;-24
2021/07/25 16:15:40;;;;;;;13.45;12.25;;;27.70;54.90;;;;;;4738322;59;21002;-27
2021/07/25 16:20:41;;;;;;;14.32;13.02;;;27.70;54.30;;;;;;4754570;55;21020;-32
2021/07/25 16:25:41;;;;;;;13.98;12.73;;;27.70;54.30;;;;;;4738385;59;21622;-29
2021/07/25 16:30:42;;;;;;;14.30;13.00;;;27.70;54.30;;;;;;4772242;55;21057;-29
2021/07/25 16:35:43;;;;;;;14.10;12.88;;;27.70;54.30;;;;;;4755121;55;21416;-26
2021/07/25 16:40:44;;;;;;;13.23;12.02;;;27.70;54.00;;;;;;4757651;55;21097;-28
2021/07/25 16:45:45;;;;;;;13.57;12.27;;;27.70;55.00;;;;;;4738366;55;21010;-24
2021/07/25 16:50:45;;;;;;;13.30;12.13;;;27.70;54.40;;;;;;4740593;55;21539;-28
2021/07/25 16:55:46;;;;;;;13.80;12.60;;;27.70;54.40;;;;;;4761396;55;21045;-25
2021/07/25 17:00:47;;;;;;;13.93;12.63;;;27.70;55.30;;;;;;4783651;55;21062;-28
2021/07/25 17:05:50;;;;;;;13.32;12.15;;;27.70;54.50;;;;;;4741884;55;20998;-24
2021/07/25 17:10:52;;;;;;;13.20;12.07;;;27.70;54.50;;;;;;4737914;59;21029;-23
2021/07/25 17:15:53;;;;;;;13.45;12.23;;;27.70;54.50;;;;;;4746608;55;21532;-26
2021/07/25 17:20:54;;;;;;;13.82;12.63;;;27.70;54.50;;;;;;4790918;55;21057;-27
2021/07/25 17:25:54;;;;;;;14.13;12.82;;;27.70;54.60;;;;;;4738461;59;21086;-27
2021/07/25 17:30:55;;;;;;;13.45;12.25;;;27.70;54.60;;;;;;4774574;55;21821;-28
2021/07/25 17:35:56;;;;;;;14.02;12.73;;;27.70;54.60;;;;;;4739756;55;21941;-27
2021/07/25 17:40:57;;;;;;;14.18;12.88;;;27.70;54.70;;;;;;4795876;55;21042;-25
2021/07/25 17:46:02;;;;;;;13.62;12.43;;;27.70;54.70;;;;;;4738028;59;21325;-22
2021/07/25 17:51:03;;;;;;;13.50;12.33;;;27.70;54.70;;;;;;4779311;55;21553;-24
2021/07/25 17:56:08;;;;;;;13.38;12.07;;;27.70;54.80;;;;;;4754364;55;21061;-29
2021/07/25 18:01:09;;;;;;;13.48;12.27;;;27.70;54.80;;;;;;4738306;56;21571;-26
2021/07/25 18:06:09;;;;;;;13.38;12.18;;;27.70;54.80;;;;;;4759696;55;21002;-31
2021/07/25 18:11:10;;;;;;;14.27;12.98;;;27.70;54.80;;;;;;4737503;59;21030;-25
2021/07/25 18:16:11;;;;;;;14.05;12.75;;;27.70;54.90;;;;;;4744041;55;21475;-23
2021/07/25 18:21:17;;;;;;;13.90;12.60;;;27.70;54.90;;;;;;4738642;59;20998;-30
2021/07/25 18:26:18;;;;;;;14.25;12.95;;;27.70;54.90;;;;;;4763909;55;20970;-28
2021/07/25 18:31:19;;;;;;;14.48;13.15;;;27.70;54.90;;;;;;4738741;59;21102;-26
2021/07/25 18:36:21;;;;;;;14.02;12.82;;;27.80;55.10;;;;;;4755558;55;20982;-23
2021/07/25 18:41:22;;;;;;;12.82;11.73;;;27.70;55.00;;;;;;4742851;55;21452;-21
2021/07/25 18:46:23;;;;;;;13.95;12.65;;;27.70;55.00;;;;;;4784496;55;20994;-27
2021/07/25 18:51:24;;;;;;;13.75;12.55;;;27.80;55.20;;;;;;4738132;55;21683;-23
2021/07/25 18:56:26;;;;;;;13.82;12.52;;;27.80;55.20;;;;;;4752630;55;21085;-23
2021/07/25 19:01:28;;;;;;;14.23;12.82;;;27.80;55.20;;;;;;4758845;55;21073;-19
2021/07/25 19:06:31;;;;;;;12.88;11.75;;;27.80;55.30;;;;;;4738247;59;21021;-26
2021/07/25 19:11:32;;;;;;;14.48;13.18;;;27.80;55.40;;;;;;4738064;59;21468;-28
2021/07/25 19:16:33;;;;;;;13.65;12.40;;;27.80;55.30;;;;;;4738619;59;21033;-27
2021/07/25 19:21:34;;;;;;;13.77;12.55;;;27.70;55.30;;;;;;4768429;55;21077;-25
2021/07/25 19:26:35;;;;;;;13.77;12.57;;;27.80;55.30;;;;;;4746830;55;21122;-25
2021/07/25 19:31:36;;;;;;;14.05;12.82;;;27.80;55.40;;;;;;4738109;59;21033;-27
2021/07/25 19:36:36;;;;;;;14.07;12.77;;;27.80;55.40;;;;;;4737622;59;21010;-30
2021/07/25 19:41:41;;;;;;;13.93;12.73;;;27.80;55.40;;;;;;4739405;55;22074;-29
2021/07/25 19:46:42;;;;;;;13.13;11.93;;;27.80;55.40;;;;;;4739819;55;21528;-29
2021/07/25 19:51:42;;;;;;;14.60;13.30;;;27.80;56.00;;;;;;4737670;59;21025;-31
2021/07/25 19:56:43;;;;;;;13.95;12.75;;;27.70;55.50;;;;;;4751226;55;20990;-26
2021/07/25 20:01:44;;;;;;;14.87;13.57;;;27.80;55.50;;;;;;4754851;55;21014;-24
2021/07/25 20:06:45;;;;;;;13.57;12.32;;;27.80;55.50;;;;;;4746260;55;21053;-29
2021/07/25 20:11:46;;;;;;;14.40;13.00;;;27.80;55.50;;;;;;4753802;55;21002;-28
2021/07/25 20:16:47;;;;;;;13.80;12.60;;;27.70;55.50;;;;;;4752755;55;21050;-27
2021/07/25 20:21:47;;;;;;;14.02;12.63;;;27.80;55.60;;;;;;4753972;55;21044;-29
2021/07/25 20:26:48;;;;;;;14.10;12.80;;;27.80;55.60;;;;;;4753714;55;21062;-28
2021/07/25 20:31:49;;;;;;;12.98;11.88;;;27.80;55.60;;;;;;4741641;55;21101;-26
2021/07/25 20:36:53;;;;;;;14.07;12.77;;;27.70;55.60;;;;;;4746582;55;21042;-25
2021/07/25 20:41:54;;;;;;;13.02;11.93;;;27.80;55.60;;;;;;4750680;55;21018;-26
2021/07/25 20:46:55;;;;;;;13.75;12.55;;;27.80;55.70;;;;;;4776616;55;20986;-27
2021/07/25 20:51:59;;;;;;;14.00;12.60;;;27.80;55.70;;;;;;4742279;55;21524;-33
2021/07/25 20:57:00;;;;;;;13.05;11.93;;;27.80;55.70;;;;;;4768390;55;21002;-28
2021/07/25 21:02:01;;;;;;;13.70;12.48;;;27.80;55.80;;;;;;4740492;55;21090;-24
2021/07/25 21:07:02;;;;;;;13.60;12.30;;;27.80;55.80;;;;;;4747694;55;21496;-29
2021/07/25 21:12:03;;;;;;;13.88;12.57;;;27.80;55.80;;;;;;4743899;55;21002;-29
2021/07/25 21:17:04;;;;;;;13.62;12.43;;;27.80;55.80;;;;;;4744788;55;21056;-22
2021/07/25 21:22:09;;;;;;;13.77;12.57;;;27.80;55.90;;;;;;4778797;55;21014;-26
2021/07/25 21:27:10;;;;;;;13.73;12.52;;;27.80;55.90;;;;;;4747571;55;21551;-29
2021/07/25 21:32:10;;;;;;;13.68;12.48;;;27.80;55.90;;;;;;4767559;55;21006;-26
2021/07/25 21:37:11;;;;;;;13.62;12.43;;;27.80;55.90;;;;;;4738303;59;20994;-26
2021/07/25 21:42:12;;;;;;;13.50;12.30;;;27.80;55.90;;;;;;4756738;55;21476;-23
2021/07/25 21:47:14;;;;;;;13.43;12.30;;;27.80;55.90;;;;;;4740736;55;21010;-26
2021/07/25 21:52:15;;;;;;;14.27;12.98;;;27.80;55.90;;;;;;4741207;55;21469;-30
2021/07/25 21:57:16;;;;;;;13.27;11.98;;;27.80;55.90;;;;;;4746396;55;21058;-30
2021/07/25 22:02:45;;;;;;;14.45;13.15;;;27.80;56.00;;;;;;4740787;55;21061;-29
2021/07/25 22:07:47;;;;;;;13.48;12.20;;;27.80;56.00;;;;;;4748796;55;21604;-27
2021/07/25 22:12:48;;;;;;;13.75;12.40;;;27.80;56.00;;;;;;4752958;55;21046;-25
2021/07/25 22:17:49;;;;;;;12.98;11.88;;;27.80;56.00;;;;;;4768752;55;21057;-27
2021/07/25 22:22:50;;;;;;;13.13;12.02;;;27.80;56.00;;;;;;4738784;59;21544;-28
2021/07/25 22:27:53;;;;;;;13.68;12.48;;;27.80;56.00;;;;;;4738707;59;21002;-27
2021/07/25 22:32:54;;;;;;;13.85;12.55;;;27.80;56.10;;;;;;4744393;55;21089;-26
2021/07/25 22:38:04;;;;;;;13.45;12.25;;;27.70;56.00;;;;;;4745541;55;21073;-25
2021/07/25 22:43:05;;;;;;;13.48;12.27;;;27.80;56.10;;;;;;4740437;55;21014;-22
2021/07/25 22:48:10;;;;;;;13.68;12.48;;;27.80;56.10;;;;;;4750819;55;21872;-24
2021/07/25 22:53:11;;;;;;;12.75;11.65;;;27.80;56.10;;;;;;4766032;55;21643;-26
2021/07/25 22:58:12;;;;;;;13.10;12.00;;;27.80;56.10;;;;;;4770946;55;21013;-25
2021/07/25 23:03:13;;;;;;;13.60;12.40;;;27.80;56.10;;;;;;4738789;59;21544;-23
2021/07/25 23:08:14;;;;;;;13.57;12.37;;;27.80;56.10;;;;;;4751206;55;21090;-25
2021/07/25 23:13:15;;;;;;;14.00;12.80;;;27.80;56.10;;;;;;4751542;55;20997;-24
2021/07/25 23:18:17;;;;;;;12.90;11.80;;;27.80;56.20;;;;;;4739321;55;20998;-25
2021/07/25 23:23:18;;;;;;;13.13;11.93;;;27.80;56.20;;;;;;4738740;59;21520;-25
2021/07/25 23:28:19;;;;;;;13.62;12.43;;;27.80;56.20;;;;;;4752504;55;21010;-30
2021/07/25 23:33:20;;;;;;;13.25;12.05;;;27.80;56.20;;;;;;4750465;55;21010;-22
2021/07/25 23:38:21;;;;;;;12.80;11.70;;;27.80;56.20;;;;;;4750396;55;20990;-27
2021/07/25 23:43:21;;;;;;;12.77;11.73;;;27.80;56.30;;;;;;4753845;55;21477;-26
2021/07/25 23:48:22;;;;;;;13.50;12.32;;;27.80;56.30;;;;;;4758871;55;21480;-24
2021/07/25 23:53:23;;;;;;;12.25;11.25;;;27.80;56.30;;;;;;4752018;55;21045;-26
2021/07/25 23:58:24;;;;;;;13.50;12.30;;;27.80;56.30;;;;;;4752702;55;21021;-26
